Virginia City Highlands, Nevada
Current Conditions -  °F | °C
As of 1:55 AM on Monday 20 Oct 2014 (Local Time) from KRNO Reporting Station
Clear Clear  
Wind Chill: 47°   Ceiling: Unl
Heat Index: 49°   Visibility: 10mi
Dew Point: 34°   Wind: 6mph
Humidity: 56%   Direction: 150°SSE
Pressure: 29.96"   Gusts: NA
Location:  39.3892°N, 119.693°W
Report Text: KRNO 200855Z 15005KT 10SM CLR 09/01 A2996 RMK AO2 SLP107 T00940011 55003
Loading
Personal Weather Stations






























Interactive Weather Map
Tropical Storm Tracking
New forecast layout! Learn more

10-Day Weather Forecast

Advertisements
Track Severe Weather on mobile